Huvudsida
METAR-TAF:

METAR-TAF

Flygplatser :

Groote Eylandt Airport

Groote Eylandt, Australien

latitud: 13-58-30S, longitud: 136-27-36E, höjd: 16 m

Aktuellt väderrapport

Denna rapport gjordes för 41 minuter sedan, klockan 17:00 UTC
Vind 5 kt från syd/sydväst
Temperatur 21°C
Fuktighet 94%
Tryck 1013 hPa
Sikt 10 km eller mer

METAR: YGTE 221700Z AUTO 20005KT 9999 // NCD 21/20 Q1013

Tid: 03:11 (17:41 UTC)


TAF: saknas

Aktuella väderrapporter och prognoser från 4000 flygplatser (METAR- och TAF-rapporter).

De tillgängliga stationerna syns som gula och röda prickar på kartan.

För musen över prickarna för att se namnen på stationerna.

Klicka sedan för att få väderrapporter och prognoser.

För att ändra kartan: Klicka på de gröna knapparna med ett svart kors på för att zooma in; den gröna knappen med ett streck på för att zooma ut; eller på de gröna pilarna för angränsande kartor.


METAR-TAF: